Airfield :
LOGIN :

Register | Disclaimer

   EN    FR    IT 

 










Legend :    VFR   Marginal VFR   IFR   Intensive IFR   Very Intensive IFR
Visi :
Ceiling :
>= 8 km
>= 3000ft
5 to 8 km
1000 to 3000 ft
1500m to 5 km
500 to 1000 ft
800 to 1500m
200 to 500 ft
< 800m
< 200 ft
Symbols :   Thunderstorms  Fog  Heavy snow  Heavy precipitations  Wind > 20 kt
SIGMETs :     Misc.  Thunderstorms  Icing  Turbulence  Mountain Waves  Volcanic Ashes







- Airport Elevation : 659 ft
- IATA code : LYN
- Download approach charts


LFLY - Lyon Bron

CURRENT METAR :
  • 201500Z AUTO 01012KT 320V040 CAVOK 24/07 Q1023 TEMPO 36015G25KT

EXPIRED METARs :
  • 201430Z AUTO 01012KT 340V050 CAVOK 24/07 Q1023 TEMPO 36015G25KT
  • 201400Z AUTO 35012KT 320V030 CAVOK 24/08 Q1023 TEMPO 36015G25KT
  • 201330Z AUTO 36013KT 330V040 CAVOK 24/08 Q1024 TEMPO 36015G25KT
  • 201300Z AUTO 36012KT 320V060 CAVOK 23/08 Q1024 TEMPO 36015G25KT
  • 201230Z AUTO 01015KT 340V040 CAVOK 23/09 Q1024 TEMPO 36015G25KT

TAF TAF LFLY
Valid from the 20 at 12:00 until the 21 at 12:00 UTC


201100Z 2012/2112 36010KT CAVOK
TEMPO 2012/2018 36015G25KT
ATIS : +33 4 72 15 87 96
No reported NOTAMs for that airfield.
1 SIGMET reported for the Marseille FIR (LFMM) :
 
Severe turbulence
LFMM SIGMET 4 VALID 201400/201800 LFPW
LFMM MARSEILLE FIR/UIR SEV TURB FCST WI N4300 E00415 - N4430 E00430 - N4430 E00500 - N4300 E00530 SFC/FL050 STNR NC=



MET'MAP, your aeronautical weather chart ! - Copyright ORBIFLY December 2007 - Disclaimer

ORBIFLY MET'MAP TEAM :

Programming & Development : Alexandra Zaïnal
Concept & Development : Baudouin d'Aumeries
Co-Development & Prog : Marc-Olivier Méhu
Technical & hardware support : Manuel Goepfert

Contact : metmap@orbifly.com




SOURCES & CREDITS :

   NOAA